Time;durP1;ratioP1;P1;durP2;ratioP2;P2;SDS_P1;SDS_P2;PMS_P1;PMS_P2;Temp;Humidity;BMP_temperature;BMP_pressure;BME280_temperature;BME280_humidity;BME280_pressure;Samples;Min_cycle;Max_cycle;Signal;HPM_P1;HPM_P2
2022/07/05 00:01:39;;;;;;;4.00;2.15;;;;;;;29.19;40.76;99481.50;4495942;31;32328;-57
2022/07/05 00:04:07;;;;;;;6.10;2.28;;;;;;;29.43;40.34;99497.97;4482617;31;33623;-58
2022/07/05 00:06:34;;;;;;;4.00;1.90;;;;;;;28.70;41.93;99499.34;4495789;31;34882;-59
2022/07/05 00:09:02;;;;;;;4.78;1.95;;;;;;;28.47;42.35;99490.00;4492610;31;34336;-58
2022/07/05 00:11:30;;;;;;;3.70;2.03;;;;;;;28.84;41.46;99489.78;4498067;31;33799;-58
2022/07/05 00:13:58;;;;;;;3.80;1.83;;;;;;;28.34;42.47;99488.28;4494548;31;34964;-57
2022/07/05 00:16:25;;;;;;;3.87;1.98;;;;;;;28.47;42.12;99487.25;4494617;31;35193;-60
2022/07/05 00:18:53;;;;;;;4.57;1.90;;;;;;;28.76;41.58;99479.97;4492132;31;33388;-61
2022/07/05 00:21:21;;;;;;;3.92;1.90;;;;;;;28.10;42.98;99459.87;4497351;31;34017;-58
2022/07/05 00:23:48;;;;;;;4.43;1.85;;;;;;;28.69;41.72;99459.13;4492623;31;33766;-59
2022/07/05 00:26:16;;;;;;;6.03;1.83;;;;;;;28.76;41.51;99449.69;4492589;31;33789;-58
2022/07/05 00:28:44;;;;;;;3.15;1.83;;;;;;;28.87;41.28;99445.25;4497424;31;33177;-61
2022/07/05 00:31:11;;;;;;;3.75;1.75;;;;;;;28.41;42.07;99443.31;4491940;31;32574;-58
2022/07/05 00:33:39;;;;;;;3.42;1.67;;;;;;;28.84;41.15;99442.97;4492377;31;34831;-58
2022/07/05 00:36:07;;;;;;;4.35;1.83;;;;;;;28.93;41.00;99435.19;4494818;31;33876;-60
2022/07/05 00:38:34;;;;;;;3.78;1.95;;;;;;;28.71;41.26;99432.19;4494679;31;33270;-59
2022/07/05 00:41:02;;;;;;;3.92;1.70;;;;;;;28.69;41.06;99434.34;4497367;31;33685;-58
2022/07/05 00:43:30;;;;;;;3.85;1.70;;;;;;;28.33;41.95;99447.25;4492256;31;35056;-59
2022/07/05 00:45:57;;;;;;;2.12;1.40;;;;;;;28.65;41.03;99435.91;4484894;31;32570;-58
2022/07/05 00:48:25;;;;;;;3.78;1.90;;;;;;;28.61;41.16;99443.00;4494320;31;33284;-58
2022/07/05 00:50:52;;;;;;;3.42;1.60;;;;;;;28.13;42.25;99428.31;4496277;31;33899;-60
2022/07/05 00:53:20;;;;;;;2.90;1.70;;;;;;;28.15;42.07;99425.31;4498089;31;33831;-58
2022/07/05 00:55:48;;;;;;;3.85;1.67;;;;;;;28.13;42.13;99433.00;4494973;31;34776;-58
2022/07/05 00:58:16;;;;;;;3.17;1.55;;;;;;;28.25;41.74;99440.19;4496721;31;35218;-58
2022/07/05 01:00:43;;;;;;;4.50;1.60;;;;;;;28.35;41.41;99447.84;4496336;31;34991;-58
2022/07/05 01:03:13;;;;;;;4.45;2.00;;;;;;;28.32;41.43;99434.56;4492703;31;33618;-59
2022/07/05 01:05:40;;;;;;;4.62;1.45;;;;;;;28.69;40.55;99431.59;4494244;31;35204;-58
2022/07/05 01:08:08;;;;;;;2.50;1.37;;;;;;;28.81;40.40;99435.19;4493029;31;33525;-58
2022/07/05 01:10:37;;;;;;;2.97;1.60;;;;;;;28.69;40.44;99429.69;4496859;31;34799;-58
2022/07/05 01:13:04;;;;;;;3.20;1.87;;;;;;;28.17;40.71;99432.25;4489251;31;33811;-58
2022/07/05 01:15:32;;;;;;;3.25;1.80;;;;;;;28.68;39.97;99432.69;4480807;31;33800;-59
2022/07/05 01:18:00;;;;;;;2.87;1.55;;;;;;;28.38;40.06;99439.13;4489467;31;33160;-59
2022/07/05 01:20:28;;;;;;;3.03;1.40;;;;;;;28.20;40.11;99431.78;4496341;31;35070;-60
2022/07/05 01:22:57;;;;;;;4.32;1.67;;;;;;;28.42;39.54;99432.09;4497120;31;33755;-57
2022/07/05 01:25:26;;;;;;;4.10;1.52;;;;;;;28.47;39.20;99428.59;4494335;31;33488;-56
2022/07/05 01:27:54;;;;;;;3.03;1.35;;;;;;;28.66;38.80;99418.31;4496414;31;34612;-56
2022/07/05 01:30:22;;;;;;;3.22;1.60;;;;;;;28.94;38.28;99421.16;4492645;31;33605;-57
2022/07/05 01:32:50;;;;;;;2.60;1.55;;;;;;;28.99;37.99;99415.75;4483613;31;33814;-56
2022/07/05 01:35:23;;;;;;;3.72;1.50;;;;;;;28.98;37.86;99419.56;4496659;31;33875;-58
2022/07/05 01:37:51;;;;;;;3.75;1.70;;;;;;;28.93;38.08;99416.72;4496309;31;33173;-56
2022/07/05 01:40:19;;;;;;;3.05;1.70;;;;;;;28.93;38.12;99422.22;4496737;31;34680;-56
2022/07/05 01:42:47;;;;;;;4.65;1.85;;;;;;;28.89;37.46;99412.78;4493900;31;35170;-57
2022/07/05 01:48:05;;;;;;;3.17;1.67;;;;;;;29.12;36.88;99411.09;4495950;31;34341;-59
2022/07/05 01:50:37;;;;;;;2.67;1.50;;;;;;;29.21;36.66;99404.94;4496680;31;33357;-58
2022/07/05 01:53:04;;;;;;;3.67;1.70;;;;;;;29.24;36.51;99400.84;4485654;31;35214;-57
2022/07/05 01:55:32;;;;;;;3.83;1.73;;;;;;;29.17;36.53;99402.91;4497012;31;34111;-57
2022/07/05 01:58:00;;;;;;;3.85;1.77;;;;;;;29.15;36.41;99407.81;4494356;31;32197;-57
2022/07/05 02:00:28;;;;;;;3.30;1.62;;;;;;;29.09;36.32;99406.06;4475159;31;33892;-58
2022/07/05 02:02:56;;;;;;;3.33;1.50;;;;;;;29.17;36.08;99408.44;4493225;31;35173;-57
2022/07/05 02:05:23;;;;;;;3.65;1.77;;;;;;;28.93;36.37;99411.22;4496923;31;34349;-60
2022/07/05 02:07:51;;;;;;;3.37;1.80;;;;;;;28.89;36.40;99414.69;4495805;31;33387;-59
2022/07/05 02:10:19;;;;;;;4.72;1.80;;;;;;;29.11;35.79;99404.72;4496629;31;33895;-56
2022/07/05 02:12:46;;;;;;;4.18;1.73;;;;;;;29.13;35.93;99405.31;4500205;31;34889;-58
2022/07/05 02:15:14;;;;;;;3.85;1.77;;;;;;;29.25;35.67;99417.16;4496479;31;33789;-58
2022/07/05 02:17:42;;;;;;;3.65;1.65;;;;;;;29.37;35.31;99400.56;4501366;31;33103;-57
2022/07/05 02:20:10;;;;;;;3.37;1.55;;;;;;;29.45;35.31;99400.16;4501314;31;34699;-57
2022/07/05 02:22:38;;;;;;;2.85;1.60;;;;;;;29.64;35.11;99397.25;4499799;31;34057;-56
2022/07/05 02:25:06;;;;;;;4.55;1.77;;;;;;;29.55;35.19;99388.50;4500299;31;33664;-58
2022/07/05 02:27:35;;;;;;;3.20;1.58;;;;;;;29.52;35.20;99390.91;4499299;31;33336;-59
2022/07/05 02:30:04;;;;;;;2.72;1.60;;;;;;;29.59;35.13;99388.84;4500188;31;33394;-57
2022/07/05 02:32:32;;;;;;;2.33;1.40;;;;;;;29.61;35.04;99395.81;4498263;31;33669;-57
2022/07/05 02:35:02;;;;;;;3.25;1.70;;;;;;;29.58;35.01;99400.97;4501154;31;35035;-59
2022/07/05 02:37:30;;;;;;;3.28;1.62;;;;;;;29.65;34.87;99396.16;4500267;31;33062;-56
2022/07/05 02:39:58;;;;;;;4.87;1.77;;;;;;;29.65;35.13;99401.66;4500344;31;34008;-57
2022/07/05 02:42:26;;;;;;;2.47;1.52;;;;;;;29.50;35.61;99407.69;4500002;31;34020;-58
2022/07/05 02:44:54;;;;;;;3.85;1.60;;;;;;;29.57;35.58;99410.31;4498689;31;34094;-56
2022/07/05 02:47:22;;;;;;;2.87;1.42;;;;;;;29.54;35.60;99414.41;4498079;31;34229;-58
2022/07/05 02:49:50;;;;;;;2.90;1.60;;;;;;;29.44;35.89;99411.47;4500623;31;33722;-56
2022/07/05 02:52:17;;;;;;;4.53;1.70;;;;;;;29.36;36.25;99406.31;4500028;31;35196;-59
2022/07/05 02:54:45;;;;;;;4.28;1.67;;;;;;;29.06;37.13;99404.63;4501440;31;33600;-56
2022/07/05 02:57:15;;;;;;;3.70;1.77;;;;;;;28.82;37.93;99401.03;4500849;31;33823;-57
2022/07/05 02:59:42;;;;;;;2.80;1.73;;;;;;;28.64;38.67;99401.22;4500944;31;33697;-59
2022/07/05 03:02:10;;;;;;;3.20;1.83;;;;;;;28.81;38.37;99398.53;4499364;31;33784;-57
2022/07/05 03:04:39;;;;;;;3.83;1.80;;;;;;;28.91;38.27;99398.75;4499070;31;34665;-57
2022/07/05 03:07:07;;;;;;;5.78;2.00;;;;;;;28.39;39.59;99394.00;4498909;31;33349;-57
2022/07/05 03:09:35;;;;;;;2.85;1.73;;;;;;;28.31;39.98;99389.72;4498317;31;35160;-57
2022/07/05 03:12:04;;;;;;;4.22;2.00;;;;;;;28.39;40.02;99396.75;4498392;31;34848;-57
2022/07/05 03:14:32;;;;;;;3.58;1.98;;;;;;;28.37;40.19;99395.31;4499358;31;32086;-59
2022/07/05 03:17:00;;;;;;;5.35;2.12;;;;;;;28.10;40.95;99401.28;4501170;31;34454;-60
2022/07/05 03:19:28;;;;;;;4.12;1.80;;;;;;;28.14;41.04;99398.87;4497556;31;33712;-59
2022/07/05 03:21:56;;;;;;;3.87;1.98;;;;;;;28.28;40.77;99386.56;4500318;31;33967;-58
2022/07/05 03:24:24;;;;;;;5.97;2.20;;;;;;;28.54;40.32;99383.37;4499979;31;32666;-57
2022/07/05 03:26:52;;;;;;;3.40;1.85;;;;;;;28.37;40.92;99387.06;4500189;31;33532;-56
2022/07/05 03:29:19;;;;;;;4.15;2.00;;;;;;;28.45;40.85;99398.56;4496957;31;34793;-58
2022/07/05 03:31:47;;;;;;;3.55;1.90;;;;;;;28.34;41.17;99402.12;4498133;31;34066;-58
2022/07/05 03:34:15;;;;;;;5.32;1.90;;;;;;;28.20;41.61;99420.78;4500193;31;33911;-58
2022/07/05 03:36:43;;;;;;;5.10;1.90;;;;;;;28.23;41.70;99423.06;4498780;31;32413;-59
2022/07/05 03:39:11;;;;;;;4.57;2.15;;;;;;;27.66;43.14;99432.81;4496729;31;33790;-57
2022/07/05 03:41:39;;;;;;;4.53;1.77;;;;;;;27.43;43.95;99430.81;4499194;31;33750;-57
2022/07/05 03:44:07;;;;;;;5.60;1.95;;;;;;;27.62;43.67;99438.78;4498632;31;33475;-58
2022/07/05 03:46:35;;;;;;;3.70;2.10;;;;;;;27.70;43.41;99434.03;4498332;31;33479;-57
2022/07/05 03:49:03;;;;;;;4.10;1.92;;;;;;;27.47;44.10;99443.84;4499998;31;33901;-57
2022/07/05 03:51:31;;;;;;;5.70;2.10;;;;;;;27.79;43.33;99447.25;4499924;31;33543;-59
2022/07/05 03:53:58;;;;;;;4.53;2.35;;;;;;;27.98;43.00;99453.50;4496384;31;35069;-59
2022/07/05 03:56:26;;;;;;;4.47;1.87;;;;;;;28.14;42.68;99463.00;4500453;31;33450;-57
2022/07/05 03:58:55;;;;;;;4.40;1.80;;;;;;;28.02;43.00;99460.22;4499633;31;34211;-57
2022/07/05 04:01:22;;;;;;;2.78;1.67;;;;;;;27.44;44.18;99452.56;4499442;31;34097;-59
2022/07/05 04:03:52;;;;;;;3.33;1.70;;;;;;;27.54;44.19;99461.09;4496752;31;35014;-59
2022/07/05 04:06:20;;;;;;;3.40;1.92;;;;;;;27.33;44.66;99467.09;4500998;31;33297;-58
2022/07/05 04:08:47;;;;;;;4.40;1.87;;;;;;;27.32;44.70;99466.25;4499636;31;33953;-60
2022/07/05 04:11:16;;;;;;;3.97;2.00;;;;;;;27.00;45.04;99456.47;4486592;31;32625;-58
2022/07/05 04:13:44;;;;;;;2.70;1.70;;;;;;;26.95;45.12;99452.50;4493515;31;34887;-57
2022/07/05 04:16:12;;;;;;;6.25;2.40;;;;;;;27.06;44.78;99461.03;4499172;31;32033;-56
2022/07/05 04:18:40;;;;;;;4.87;2.00;;;;;;;26.90;44.97;99449.63;4492807;31;34128;-58
2022/07/05 04:21:08;;;;;;;3.53;1.90;;;;;;;27.31;43.87;99452.75;4494350;31;33726;-58
2022/07/05 04:23:35;;;;;;;6.35;1.90;;;;;;;27.25;44.03;99448.16;4494235;31;33939;-59
2022/07/05 04:26:04;;;;;;;4.57;2.17;;;;;;;27.27;43.72;99457.03;4496838;31;33754;-56
2022/07/05 04:28:32;;;;;;;4.97;2.20;;;;;;;27.43;43.33;99452.81;4495110;31;34011;-60
2022/07/05 04:30:59;;;;;;;5.20;1.77;;;;;;;27.31;43.58;99452.75;4496494;31;34935;-57
2022/07/05 04:33:29;;;;;;;4.18;1.87;;;;;;;27.97;42.16;99440.84;4496206;31;32839;-57
2022/07/05 04:35:56;;;;;;;3.85;2.00;;;;;;;27.57;42.93;99435.06;4495127;31;34433;-57
2022/07/05 04:38:24;;;;;;;3.15;1.80;;;;;;;27.86;42.37;99444.37;4495015;31;33736;-60
2022/07/05 04:40:52;;;;;;;4.62;2.00;;;;;;;27.46;43.64;99441.34;4496783;31;33615;-59
2022/07/05 04:43:20;;;;;;;4.40;1.87;;;;;;;27.49;43.45;99449.97;4495291;31;34047;-58
2022/07/05 04:45:47;;;;;;;5.82;1.80;;;;;;;28.15;42.24;99453.66;4495800;31;33305;-56
2022/07/05 04:48:22;;;;;;;4.50;2.33;;;;;;;28.14;42.23;99442.91;4495134;31;34722;-56
2022/07/05 04:50:50;;;;;;;3.85;1.90;;;;;;;27.37;43.80;99441.66;4497260;31;33907;-58
2022/07/05 04:53:18;;;;;;;3.22;1.90;;;;;;;27.01;44.51;99447.16;4498403;31;32533;-57
2022/07/05 04:55:46;;;;;;;4.35;1.80;;;;;;;26.83;45.19;99437.00;4496008;31;34143;-57
2022/07/05 04:58:13;;;;;;;3.67;1.85;;;;;;;27.32;43.91;99441.53;4497279;31;33969;-59
2022/07/05 05:00:40;;;;;;;3.65;1.80;;;;;;;27.10;44.40;99443.06;4494649;31;32874;-59
2022/07/05 05:03:09;;;;;;;3.15;1.83;;;;;;;27.56;43.31;99433.38;4482735;31;32525;-57
2022/07/05 05:05:36;;;;;;;7.32;2.22;;;;;;;27.30;43.55;99431.84;4495745;31;33425;-59
2022/07/05 05:08:04;;;;;;;6.80;1.95;;;;;;;27.24;43.63;99427.28;4494324;31;33891;-58
2022/07/05 05:10:32;;;;;;;4.75;2.25;;;;;;;27.31;43.61;99433.50;4493303;31;35631;-57
2022/07/05 05:12:59;;;;;;;2.97;1.60;;;;;;;27.33;43.58;99428.63;4496807;31;33706;-56
2022/07/05 05:15:27;;;;;;;7.10;1.87;;;;;;;27.95;42.51;99444.91;4496622;31;33631;-59
2022/07/05 05:17:54;;;;;;;3.53;1.92;;;;;;;28.12;41.92;99431.28;4495385;31;32508;-59
2022/07/05 05:20:22;;;;;;;4.93;1.80;;;;;;;27.97;41.74;99438.09;4496480;31;35481;-57
2022/07/05 05:22:49;;;;;;;6.62;2.37;;;;;;;27.64;42.24;99433.06;4495066;31;33506;-57
2022/07/05 05:25:17;;;;;;;3.20;1.67;;;;;;;27.74;42.29;99432.50;4496974;31;33090;-57
2022/07/05 05:27:47;;;;;;;4.93;1.70;;;;;;;28.08;41.18;99430.94;4496225;31;33999;-58
2022/07/05 05:30:19;;;;;;;2.67;1.58;;;;;;;28.20;41.52;99434.53;4497495;31;34056;-56
2022/07/05 05:32:47;;;;;;;2.67;1.55;;;;;;;27.90;41.86;99440.12;4492160;31;33598;-59
2022/07/05 05:35:18;;;;;;;3.60;1.48;;;;;;;27.48;42.46;99444.69;4494095;31;33999;-60
2022/07/05 05:37:51;;;;;;;3.95;1.50;;;;;;;27.94;41.94;99443.22;4481386;31;32289;-60
2022/07/05 05:40:20;;;;;;;4.95;1.92;;;;;;;27.70;42.01;99439.53;4494707;31;33643;-60
2022/07/05 05:42:49;;;;;;;2.50;1.50;;;;;;;27.69;42.29;99444.19;4495969;31;32852;-57
2022/07/05 05:45:17;;;;;;;3.40;1.67;;;;;;;28.06;41.16;99438.59;4495586;31;33399;-57
2022/07/05 05:47:45;;;;;;;4.78;2.10;;;;;;;28.12;41.11;99442.28;4486350;31;34920;-56
2022/07/05 05:50:13;;;;;;;6.80;1.75;;;;;;;28.15;40.93;99450.91;4494520;31;32860;-57
2022/07/05 05:52:40;;;;;;;6.43;2.47;;;;;;;27.57;42.25;99457.03;4494719;31;34175;-57
2022/07/05 05:55:08;;;;;;;4.15;1.60;;;;;;;27.70;41.67;99451.34;4494355;31;34442;-58
2022/07/05 05:57:36;;;;;;;3.87;1.98;;;;;;;27.33;42.40;99459.69;4496593;31;33944;-60
2022/07/05 06:00:05;;;;;;;3.50;1.62;;;;;;;27.04;43.32;99464.03;4496915;31;34056;-57
2022/07/05 06:02:39;;;;;;;3.42;1.50;;;;;;;27.12;43.47;99476.59;4490925;31;35071;-59
2022/07/05 06:05:08;;;;;;;5.90;2.00;;;;;;;27.53;42.67;99464.91;4493512;31;34748;-59
2022/07/05 06:07:49;;;;;;;5.00;1.90;;;;;;;27.46;42.62;99464.19;4494914;31;33706;-57
2022/07/05 06:10:19;;;;;;;2.87;1.50;;;;;;;27.17;43.40;99469.41;4496296;31;33298;-56
2022/07/05 06:12:47;;;;;;;4.57;2.12;;;;;;;26.95;44.01;99457.16;4494118;31;33683;-60
2022/07/05 06:15:16;;;;;;;4.37;1.60;;;;;;;27.57;42.69;99468.03;4494419;31;35068;-57
2022/07/05 06:17:44;;;;;;;4.45;1.70;;;;;;;27.20;43.61;99470.00;4494901;31;33784;-57
2022/07/05 06:20:17;;;;;;;3.35;2.00;;;;;;;27.04;43.92;99465.94;4497166;31;33884;-57
2022/07/05 06:22:45;;;;;;;2.87;1.60;;;;;;;27.07;43.96;99463.56;4495060;31;32788;-58
2022/07/05 06:25:13;;;;;;;3.65;1.75;;;;;;;27.28;43.83;99465.03;4492550;31;34434;-58
2022/07/05 06:27:57;;;;;;;4.12;1.90;;;;;;;27.45;43.88;99461.66;4493660;31;34933;-58
2022/07/05 06:30:26;;;;;;;3.97;1.77;;;;;;;27.31;43.31;99460.97;4493045;31;33624;-58
2022/07/05 06:32:54;;;;;;;4.15;1.50;;;;;;;26.81;44.10;99469.38;4489977;31;32530;-56
2022/07/05 06:35:22;;;;;;;4.22;1.65;;;;;;;27.09;43.78;99471.56;4495510;31;33432;-58
2022/07/05 06:37:51;;;;;;;2.78;1.40;;;;;;;26.55;45.00;99475.94;4493461;31;34995;-58
2022/07/05 06:40:28;;;;;;;4.43;1.85;;;;;;;26.61;45.34;99467.66;4491695;31;33867;-57
2022/07/05 06:42:57;;;;;;;3.62;1.55;;;;;;;26.64;45.06;99460.84;4494082;31;33595;-59
2022/07/05 06:45:29;;;;;;;5.07;2.17;;;;;;;26.91;44.91;99461.44;4495371;31;34506;-58
2022/07/05 06:47:58;;;;;;;3.05;1.50;;;;;;;27.21;44.58;99453.28;4493613;31;32786;-57
2022/07/05 06:50:28;;;;;;;2.95;1.80;;;;;;;27.41;43.71;99461.28;4495731;31;34187;-57
2022/07/05 06:52:56;;;;;;;3.87;1.50;;;;;;;26.81;45.41;99455.62;4491791;31;34898;-58
2022/07/05 06:55:24;;;;;;;2.45;1.40;;;;;;;26.83;45.14;99448.81;4494748;31;34379;-57
2022/07/05 06:58:18;;;;;;;4.72;1.52;;;;;;;27.00;44.69;99449.09;4497727;31;33579;-60
2022/07/05 07:00:46;;;;;;;2.75;1.42;;;;;;;26.79;45.21;99441.28;4491667;31;32592;-60
2022/07/05 07:03:34;;;;;;;3.47;1.70;;;;;;;27.54;43.60;99444.59;4497401;31;34986;-57
2022/07/05 07:06:22;;;;;;;3.85;1.52;;;;;;;27.53;44.09;99453.94;4496813;31;33205;-57
2022/07/05 07:11:35;;;;;;;;;;;;;;;27.27;44.45;99446.03;4491856;31;34945;-58
2022/07/05 07:14:02;;;;;;;4.62;1.60;;;;;;;27.38;43.96;99448.00;4497810;31;33654;-60
2022/07/05 07:16:30;;;;;;;3.78;1.83;;;;;;;27.27;45.07;99446.88;4498163;31;33430;-60
2022/07/05 07:18:57;;;;;;;3.03;1.50;;;;;;;27.02;44.49;99452.41;4494972;31;33391;-60
2022/07/05 07:21:42;;;;;;;3.73;1.50;;;;;;;27.28;43.14;99445.78;4497569;31;33853;-60
2022/07/05 07:24:11;;;;;;;3.53;1.80;;;;;;;27.04;43.92;99439.31;4495830;31;33681;-58
2022/07/05 07:29:25;;;;;;;2.92;1.80;;;;;;;27.39;43.91;99453.28;4481532;31;33600;-56
2022/07/05 07:31:53;;;;;;;3.40;1.40;;;;;;;26.55;45.21;99446.59;4493707;31;33881;-58
2022/07/05 07:34:21;;;;;;;5.20;1.40;;;;;;;26.80;44.44;99442.94;4488722;31;32743;-58
2022/07/05 07:36:49;;;;;;;4.90;1.95;;;;;;;26.86;44.72;99440.12;4494944;31;33108;-60
2022/07/05 07:39:17;;;;;;;3.55;1.40;;;;;;;27.43;44.08;99442.66;4494291;31;35899;-60
2022/07/05 07:41:45;;;;;;;2.65;1.37;;;;;;;27.90;43.30;99439.25;4497940;31;34042;-57
2022/07/05 07:44:12;;;;;;;4.60;1.70;;;;;;;27.69;44.00;99435.94;4497024;31;32724;-60
2022/07/05 07:46:40;;;;;;;3.72;1.67;;;;;;;27.34;45.05;99439.38;4491055;31;32169;-56
2022/07/05 07:49:08;;;;;;;6.47;1.60;;;;;;;27.55;44.36;99440.81;4494106;31;32767;-57
2022/07/05 07:51:37;;;;;;;4.20;1.95;;;;;;;26.94;45.68;99439.84;4485171;31;32581;-57
2022/07/05 07:54:05;;;;;;;5.40;1.60;;;;;;;27.60;44.77;99438.16;4487345;31;33691;-58
2022/07/05 07:56:39;;;;;;;4.95;1.62;;;;;;;27.40;44.87;99440.38;4483461;31;32209;-57
2022/07/05 07:59:07;;;;;;;6.20;2.55;;;;;;;27.39;44.91;99435.94;4484074;32;33566;-57
2022/07/05 08:01:35;;;;;;;5.35;2.03;;;;;;;27.69;44.58;99441.44;4499532;31;33513;-58
2022/07/05 08:04:11;;;;;;;6.78;2.33;;;;;;;26.99;45.44;99443.81;4498448;31;33676;-61
2022/07/05 08:06:39;;;;;;;6.62;2.45;;;;;;;27.32;44.94;99441.53;4487222;31;31981;-59
2022/07/05 08:09:06;;;;;;;4.28;1.70;;;;;;;26.70;46.23;99444.31;4496625;31;33886;-55
2022/07/05 08:11:42;;;;;;;4.18;1.75;;;;;;;26.81;46.57;99440.00;4498292;31;34073;-57
2022/07/05 08:14:10;;;;;;;2.97;1.80;;;;;;;26.39;47.30;99447.97;4498410;31;33987;-59
2022/07/05 08:16:37;;;;;;;3.15;2.10;;;;;;;26.03;47.97;99445.94;4500193;31;34453;-60
2022/07/05 08:21:52;;;;;;;4.37;1.75;;;;;;;25.95;49.07;99449.81;4485762;31;32664;-57
2022/07/05 08:24:19;;;;;;;3.90;1.85;;;;;;;26.57;48.24;99454.59;4487855;31;33559;-58
2022/07/05 08:26:47;;;;;;;5.65;1.85;;;;;;;27.19;47.24;99455.41;4494801;31;32943;-57
2022/07/05 08:29:15;;;;;;;3.97;1.95;;;;;;;26.69;48.09;99442.66;4491092;31;35001;-58
2022/07/05 08:31:51;;;;;;;5.25;2.58;;;;;;;26.94;47.62;99450.81;4499247;31;34153;-58
2022/07/05 08:34:20;;;;;;;4.47;1.80;;;;;;;26.71;47.90;99450.66;4495422;31;33959;-56
2022/07/05 08:36:48;;;;;;;6.10;1.90;;;;;;;26.68;48.25;99456.59;4491553;31;33679;-56
2022/07/05 08:39:17;;;;;;;3.45;1.85;;;;;;;27.14;46.80;99460.78;4497400;31;33696;-57
2022/07/05 08:41:49;;;;;;;5.07;1.80;;;;;;;26.92;46.91;99463.94;4497455;31;35178;-58
2022/07/05 08:44:21;;;;;;;8.77;1.75;;;;;;;26.51;47.67;99460.97;4491723;31;34916;-59
2022/07/05 08:46:52;;;;;;;4.68;1.60;;;;;;;26.07;47.38;99460.91;4484926;31;31228;-58
2022/07/05 08:49:23;;;;;;;4.93;1.83;;;;;;;25.71;48.27;99461.50;4493043;31;33950;-61
2022/07/05 08:51:51;;;;;;;4.07;1.37;;;;;;;25.98;48.29;99457.59;4484742;31;34145;-57
2022/07/05 08:54:19;;;;;;;3.53;1.73;;;;;;;26.08;47.99;99468.06;4491573;31;34915;-58
2022/07/05 08:56:47;;;;;;;3.97;2.05;;;;;;;25.76;48.97;99469.94;4493492;31;33015;-59
2022/07/05 08:59:35;;;;;;;4.62;1.90;;;;;;;25.54;50.01;99472.16;4490292;31;34891;-57
2022/07/05 09:02:03;;;;;;;4.32;2.00;;;;;;;25.83;49.78;99476.25;4494363;31;34847;-58
2022/07/05 09:04:37;;;;;;;5.12;2.03;;;;;;;25.87;50.20;99473.91;4488297;31;33879;-61
2022/07/05 09:07:07;;;;;;;3.95;2.20;;;;;;;25.42;51.39;99472.00;4490317;31;31789;-59
2022/07/05 09:09:43;;;;;;;3.37;1.80;;;;;;;25.70;50.36;99466.16;4499539;31;34677;-59
2022/07/05 09:12:13;;;;;;;4.10;1.75;;;;;;;25.58;51.23;99469.81;4496450;31;33412;-59
2022/07/05 09:14:53;;;;;;;6.20;2.30;;;;;;;25.73;50.88;99468.47;4493578;31;33869;-58
2022/07/05 09:17:22;;;;;;;3.62;2.20;;;;;;;25.48;52.05;99464.81;4485325;31;33421;-58
2022/07/05 09:20:07;;;;;;;5.18;2.10;;;;;;;25.79;51.08;99469.50;4497479;31;35069;-60
2022/07/05 09:23:01;;;;;;;5.40;2.20;;;;;;;25.43;52.00;99460.00;4498487;31;33925;-58
2022/07/05 09:25:30;;;;;;;4.65;2.30;;;;;;;25.50;51.61;99454.47;4482456;31;34498;-59
2022/07/05 09:28:03;;;;;;;5.12;2.03;;;;;;;25.38;52.13;99461.69;4486979;31;34440;-57
2022/07/05 09:30:33;;;;;;;4.35;2.00;;;;;;;25.39;52.52;99457.91;4496349;31;33643;-60
2022/07/05 09:33:10;;;;;;;5.75;2.25;;;;;;;25.45;52.39;99466.06;4494283;31;34064;-59
2022/07/05 09:35:43;;;;;;;5.72;2.00;;;;;;;25.58;52.10;99467.06;4491180;31;33816;-59
2022/07/05 09:38:22;;;;;;;3.90;2.25;;;;;;;25.78;51.96;99467.81;4493353;31;33156;-62
2022/07/05 09:40:55;;;;;;;4.85;2.10;;;;;;;25.92;51.67;99457.63;4491922;31;33582;-58
2022/07/05 09:43:25;;;;;;;5.95;1.90;;;;;;;26.21;50.74;99456.16;4487607;31;32717;-59
2022/07/05 09:46:00;;;;;;;5.18;2.30;;;;;;;25.91;51.26;99465.03;4484503;32;33845;-57
2022/07/05 09:48:29;;;;;;;3.60;1.92;;;;;;;26.03;50.53;99481.59;4483585;31;33016;-60
2022/07/05 09:51:12;;;;;;;10.00;2.65;;;;;;;25.46;51.67;99484.22;4489821;31;34777;-58
2022/07/05 09:54:01;;;;;;;9.73;2.60;;;;;;;25.24;55.05;99494.62;4488822;31;34128;-58
2022/07/05 09:56:46;;;;;;;7.37;2.60;;;;;;;25.86;55.79;99510.59;4486124;31;33266;-58
2022/07/05 09:59:21;;;;;;;8.93;2.90;;;;;;;24.73;59.71;99519.97;4498657;31;33179;-58
2022/07/05 10:01:50;;;;;;;7.68;3.15;;;;;;;24.15;62.76;99531.50;4484651;31;32442;-57
2022/07/05 10:04:19;;;;;;;11.82;4.00;;;;;;;24.55;60.82;99522.50;4483894;31;31951;-58
2022/07/05 10:06:47;;;;;;;7.80;3.08;;;;;;;24.56;63.49;99525.06;4495401;31;33951;-60
2022/07/05 10:09:15;;;;;;;6.95;2.92;;;;;;;24.42;63.62;99534.28;4497502;31;31901;-57
2022/07/05 10:11:44;;;;;;;6.80;2.65;;;;;;;24.08;64.02;99543.50;4482143;31;33863;-58
2022/07/05 10:14:18;;;;;;;5.43;2.92;;;;;;;24.10;64.51;99544.09;4487690;31;32920;-58
2022/07/05 10:16:59;;;;;;;8.40;3.55;;;;;;;23.89;65.89;99542.38;4491486;31;32799;-60
2022/07/05 10:19:32;;;;;;;9.23;3.05;;;;;;;23.89;65.91;99535.03;4490228;31;34515;-58
2022/07/05 10:22:02;;;;;;;5.07;3.10;;;;;;;23.90;66.21;99536.69;4480601;31;35520;-58
2022/07/05 10:24:48;;;;;;;6.78;2.85;;;;;;;23.59;66.59;99536.34;4490958;31;33894;-59
2022/07/05 10:27:18;;;;;;;6.03;2.70;;;;;;;23.23;67.89;99549.22;4493526;31;33055;-61
2022/07/05 10:29:46;;;;;;;5.78;3.03;;;;;;;23.69;65.87;99548.63;4492641;31;33248;-58
2022/07/05 10:32:14;;;;;;;7.55;2.85;;;;;;;23.00;67.48;99537.75;4486358;31;33768;-57
2022/07/05 10:34:46;;;;;;;5.53;3.28;;;;;;;23.06;68.29;99545.13;4496974;31;35236;-58
2022/07/05 10:37:28;;;;;;;6.12;3.25;;;;;;;22.89;68.50;99539.13;4496899;31;33717;-59
2022/07/05 10:39:58;;;;;;;5.50;3.58;;;;;;;22.89;69.03;99547.31;4496919;31;32700;-60
2022/07/05 10:42:30;;;;;;;6.78;4.00;;;;;;;22.48;70.51;99547.19;4479525;31;32444;-60
2022/07/05 10:44:58;;;;;;;6.55;3.53;;;;;;;22.66;70.95;99568.50;4496531;31;33505;-58
2022/07/05 10:47:27;;;;;;;6.55;3.80;;;;;;;22.58;71.73;99557.75;4493769;31;34671;-59
2022/07/05 10:50:03;;;;;;;6.53;3.60;;;;;;;23.17;68.46;99558.19;4497512;31;33608;-58
2022/07/05 10:52:31;;;;;;;6.28;4.25;;;;;;;22.96;68.77;99561.88;4490595;31;32452;-57
2022/07/05 10:55:19;;;;;;;5.72;3.62;;;;;;;23.32;68.46;99562.72;4482415;31;32805;-59
2022/07/05 10:58:17;;;;;;;6.22;3.85;;;;;;;23.02;68.50;99558.34;4488237;31;33642;-58
2022/07/05 11:01:20;;;;;;;6.78;3.75;;;;;;;23.54;67.35;99563.47;4496464;31;32798;-61
2022/07/05 11:04:07;;;;;;;6.43;4.25;;;;;;;23.09;69.83;99563.00;4483932;31;35026;-59
2022/07/05 11:06:38;;;;;;;6.45;4.43;;;;;;;23.56;68.06;99577.72;4483013;31;33738;-58
2022/07/05 11:09:11;;;;;;;6.78;3.78;;;;;;;23.39;68.55;99582.69;4495429;31;35141;-58
2022/07/05 11:11:52;;;;;;;5.55;3.83;;;;;;;23.31;68.33;99583.72;4483532;31;32444;-60
2022/07/05 11:14:45;;;;;;;6.18;3.72;;;;;;;23.53;67.49;99584.47;4492173;31;33305;-58
2022/07/05 11:17:27;;;;;;;7.32;4.60;;;;;;;23.09;68.68;99593.88;4494101;31;34106;-58
2022/07/05 11:20:21;;;;;;;5.82;4.10;;;;;;;23.45;68.74;99587.34;4496862;31;34967;-58
2022/07/05 11:23:12;;;;;;;5.53;3.90;;;;;;;23.78;67.20;99590.25;4489357;31;31560;-57
2022/07/05 11:25:46;;;;;;;6.80;3.65;;;;;;;23.87;66.17;99583.56;4494775;31;35280;-60
2022/07/05 11:28:18;;;;;;;7.12;4.30;;;;;;;23.58;67.21;99573.75;4497450;31;34178;-59
2022/07/05 11:30:52;;;;;;;6.25;3.70;;;;;;;23.59;66.60;99566.41;4497012;31;33809;-56
2022/07/05 11:33:54;;;;;;;5.35;3.47;;;;;;;22.73;69.19;99547.59;4496608;31;33408;-60
2022/07/05 11:36:27;;;;;;;8.05;3.65;;;;;;;23.20;67.48;99546.03;4469611;31;35019;-61
2022/07/05 11:39:16;;;;;;;5.20;3.03;;;;;;;23.43;66.73;99549.31;4492492;31;35164;-61
2022/07/05 11:41:48;;;;;;;4.68;2.92;;;;;;;23.68;66.51;99543.31;4482043;31;33259;-58
2022/07/05 11:44:16;;;;;;;6.15;3.60;;;;;;;24.31;64.43;99559.50;4490562;31;31905;-60
2022/07/05 11:46:45;;;;;;;5.47;3.50;;;;;;;24.39;63.72;99553.81;4492226;31;32281;-57
2022/07/05 11:49:20;;;;;;;6.00;3.42;;;;;;;24.84;62.56;99559.53;4498453;31;34007;-57
2022/07/05 11:51:55;;;;;;;5.12;3.30;;;;;;;25.08;62.63;99555.31;4492540;31;32503;-57
2022/07/05 11:54:28;;;;;;;5.00;3.17;;;;;;;25.31;61.92;99560.34;4506400;31;34567;-56
2022/07/05 11:56:56;;;;;;;6.35;3.30;;;;;;;24.57;64.34;99556.81;4498307;31;34844;-57
2022/07/05 11:59:25;;;;;;;5.40;3.30;;;;;;;25.24;61.98;99546.66;4487601;31;33874;-57
2022/07/05 12:01:53;;;;;;;5.65;3.33;;;;;;;24.20;64.13;99540.97;4496666;31;35143;-56